createdAt,value
2019-02-23T00:02:12.176Z,6.80
2019-02-23T00:04:40.645Z,6.80
2019-02-23T00:07:09.213Z,6.80
2019-02-23T00:09:37.688Z,6.70
2019-02-23T00:12:06.172Z,6.70
2019-02-23T00:14:34.700Z,6.70
2019-02-23T00:17:03.174Z,6.70
2019-02-23T00:19:31.693Z,6.60
2019-02-23T00:22:00.226Z,6.60
2019-02-23T00:24:28.759Z,6.60
2019-02-23T00:26:57.252Z,6.60
2019-02-23T00:29:25.780Z,6.60
2019-02-23T00:31:54.250Z,6.70
2019-02-23T00:34:22.763Z,6.60
2019-02-23T00:36:54.265Z,6.60
2019-02-23T00:39:22.745Z,6.60
2019-02-23T00:41:51.205Z,6.50
2019-02-23T00:44:19.665Z,6.50
2019-02-23T00:46:48.158Z,6.50
2019-02-23T00:49:16.713Z,6.60
2019-02-23T00:51:45.245Z,6.60
2019-02-23T00:54:13.780Z,6.60
2019-02-23T00:56:42.384Z,6.60
2019-02-23T00:59:10.908Z,6.60
2019-02-23T01:01:39.502Z,6.60
2019-02-23T01:04:07.967Z,6.60
2019-02-23T01:06:36.432Z,6.50
2019-02-23T01:09:05.800Z,6.50
2019-02-23T01:11:34.261Z,6.50
2019-02-23T01:14:02.806Z,6.50
2019-02-23T01:16:31.374Z,6.50
2019-02-23T01:18:59.873Z,6.50
2019-02-23T01:21:28.365Z,6.50
2019-02-23T01:23:56.904Z,6.50
2019-02-23T01:26:25.403Z,6.50
2019-02-23T01:28:53.868Z,6.40
2019-02-23T01:31:22.497Z,6.40
2019-02-23T01:33:51.144Z,6.40
2019-02-23T01:36:19.737Z,6.40
2019-02-23T01:38:48.280Z,6.30
2019-02-23T01:41:16.847Z,6.30
2019-02-23T01:43:45.325Z,6.30
2019-02-23T01:46:13.882Z,6.30
2019-02-23T01:48:42.896Z,6.30
2019-02-23T01:51:11.347Z,6.30
2019-02-23T01:53:39.823Z,6.30
2019-02-23T01:56:08.488Z,6.20
2019-02-23T01:58:37.128Z,6.20
2019-02-23T02:01:06.337Z,6.20
2019-02-23T02:03:34.901Z,6.20
2019-02-23T02:06:22.710Z,6.10
2019-02-23T02:08:51.397Z,6.10
2019-02-23T02:11:20.046Z,6.10
2019-02-23T02:13:48.573Z,6.10
2019-02-23T02:16:17.139Z,6.10
2019-02-23T02:18:45.595Z,6.00
2019-02-23T02:21:14.101Z,6.00
2019-02-23T02:23:42.719Z,6.00
2019-02-23T02:26:11.189Z,6.00
2019-02-23T02:28:40.051Z,6.00
2019-02-23T02:31:08.633Z,6.00
2019-02-23T02:33:40.234Z,6.00
2019-02-23T02:36:08.814Z,6.00
2019-02-23T02:38:37.356Z,6.00
2019-02-23T02:41:05.819Z,5.90
2019-02-23T02:43:34.309Z,5.90
2019-02-23T02:46:02.900Z,5.90
2019-02-23T02:48:31.364Z,5.90
2019-02-23T02:51:00.009Z,5.90
2019-02-23T02:53:28.505Z,5.90
2019-02-23T02:55:57.031Z,5.80
2019-02-23T02:58:25.526Z,5.80
2019-02-23T03:00:54.021Z,5.80
2019-02-23T03:03:22.522Z,5.80
2019-02-23T03:05:51.045Z,5.70
2019-02-23T03:08:19.609Z,5.70
2019-02-23T03:10:48.076Z,5.70
2019-02-23T03:13:16.697Z,5.70
2019-02-23T03:15:45.193Z,5.70
2019-02-23T03:18:13.703Z,5.70
2019-02-23T03:20:42.196Z,5.70
2019-02-23T03:23:10.762Z,5.70
2019-02-23T03:25:39.372Z,5.60
2019-02-23T03:28:07.925Z,5.60
2019-02-23T03:30:36.428Z,5.60
2019-02-23T03:33:04.917Z,5.50
2019-02-23T03:35:33.512Z,5.50
2019-02-23T03:38:02.061Z,5.50
2019-02-23T03:40:30.595Z,5.50
2019-02-23T03:42:59.061Z,5.40
2019-02-23T03:45:27.626Z,5.40
2019-02-23T03:47:56.094Z,5.40
2019-02-23T03:50:24.557Z,5.40
2019-02-23T03:52:53.137Z,5.40
2019-02-23T03:55:21.623Z,5.30
2019-02-23T03:57:50.153Z,5.30
2019-02-23T04:00:18.666Z,5.30
2019-02-23T04:02:47.141Z,5.20
2019-02-23T04:05:15.672Z,5.20
2019-02-23T04:07:44.163Z,5.20
2019-02-23T04:10:12.641Z,5.10
2019-02-23T04:12:41.180Z,5.10
2019-02-23T04:15:09.743Z,5.00
2019-02-23T04:17:38.236Z,5.00
2019-02-23T04:20:08.134Z,5.00
2019-02-23T04:22:36.721Z,5.00
2019-02-23T04:25:07.516Z,4.90
2019-02-23T04:27:35.987Z,5.00
2019-02-23T04:30:06.130Z,5.00
2019-02-23T04:32:34.592Z,5.00
2019-02-23T04:35:03.118Z,5.00
2019-02-23T04:37:31.621Z,5.00
2019-02-23T04:40:00.326Z,5.00
2019-02-23T04:42:29.112Z,4.90
2019-02-23T04:44:57.602Z,4.90
2019-02-23T04:47:26.132Z,4.90
2019-02-23T04:49:55.613Z,4.90
2019-02-23T04:52:24.143Z,4.90
2019-02-23T04:54:52.608Z,4.90
2019-02-23T04:57:21.091Z,4.90
2019-02-23T04:59:49.607Z,4.90
2019-02-23T05:02:18.081Z,4.90
2019-02-23T05:04:46.609Z,4.90
2019-02-23T05:07:15.118Z,4.90
2019-02-23T05:09:44.332Z,4.90
2019-02-23T05:12:12.920Z,4.90
2019-02-23T05:14:41.416Z,4.90
2019-02-23T05:17:09.908Z,4.90
2019-02-23T05:19:38.396Z,4.90
2019-02-23T05:22:07.033Z,4.90
2019-02-23T05:24:35.598Z,4.80
2019-02-23T05:27:04.142Z,4.80
2019-02-23T05:29:32.929Z,4.80
2019-02-23T05:32:01.392Z,4.70
2019-02-23T05:34:29.857Z,4.70
2019-02-23T05:36:58.516Z,4.70
2019-02-23T05:39:27.051Z,4.70
2019-02-23T05:41:55.592Z,4.70
2019-02-23T05:44:24.111Z,4.70
2019-02-23T05:46:52.653Z,4.70
2019-02-23T05:49:21.120Z,4.60
2019-02-23T05:51:49.701Z,4.60
2019-02-23T05:54:18.209Z,4.60
2019-02-23T05:56:46.802Z,4.60
2019-02-23T05:59:15.269Z,4.70
2019-02-23T06:01:43.769Z,4.60
2019-02-23T06:04:12.245Z,4.60
2019-02-23T06:06:40.702Z,4.60
2019-02-23T06:09:09.220Z,4.60
2019-02-23T06:11:37.904Z,4.60
2019-02-23T06:14:06.494Z,4.60
2019-02-23T06:16:35.026Z,4.60
2019-02-23T06:19:03.569Z,4.60
2019-02-23T06:21:32.512Z,4.50
2019-02-23T06:24:02.606Z,4.50
2019-02-23T06:26:31.480Z,4.50
2019-02-23T06:28:59.981Z,4.50
2019-02-23T06:31:28.445Z,4.50
2019-02-23T06:33:56.940Z,4.50
2019-02-23T06:36:25.477Z,4.50
2019-02-23T06:38:54.112Z,4.40
2019-02-23T06:41:22.609Z,4.40
2019-02-23T06:43:51.222Z,4.40
2019-02-23T06:46:19.692Z,4.50
2019-02-23T06:48:48.159Z,4.40
2019-02-23T06:51:16.680Z,4.40
2019-02-23T06:53:46.824Z,4.40
2019-02-23T06:56:15.309Z,4.40
2019-02-23T06:58:43.872Z,4.50
2019-02-23T07:01:12.617Z,4.50
2019-02-23T07:03:41.074Z,4.50
2019-02-23T07:06:09.681Z,4.50
2019-02-23T07:08:38.211Z,4.50
2019-02-23T07:11:07.084Z,4.50
2019-02-23T07:13:35.653Z,4.40
2019-02-23T07:16:04.130Z,4.50
2019-02-23T07:18:32.662Z,4.50
2019-02-23T07:21:01.174Z,4.50
2019-02-23T07:23:29.640Z,4.50
2019-02-23T07:25:58.182Z,4.50
2019-02-23T07:28:26.690Z,4.50
2019-02-23T07:30:55.154Z,4.60
2019-02-23T07:33:32.374Z,4.60
2019-02-23T07:35:53.875Z,4.60
2019-02-23T07:38:22.404Z,4.80
2019-02-23T07:40:50.924Z,4.90
2019-02-23T07:43:19.433Z,5.10
2019-02-23T07:45:47.890Z,5.20
2019-02-23T07:48:16.422Z,5.50
2019-02-23T07:50:44.977Z,5.80
2019-02-23T07:53:13.460Z,6.10
2019-02-23T07:55:41.977Z,6.20
2019-02-23T07:58:10.463Z,6.40
2019-02-23T08:00:39.074Z,6.50
2019-02-23T08:03:07.611Z,6.60
2019-02-23T08:05:36.117Z,7.00
2019-02-23T08:08:04.584Z,7.10
2019-02-23T08:10:33.290Z,7.30
2019-02-23T08:13:01.769Z,7.40
2019-02-23T08:15:30.260Z,7.80
2019-02-23T08:17:58.829Z,7.80
2019-02-23T08:20:27.447Z,7.60
2019-02-23T08:22:55.928Z,7.50
2019-02-23T08:25:24.407Z,7.80
2019-02-23T08:27:52.993Z,7.70
2019-02-23T08:30:21.561Z,8.00
2019-02-23T08:32:50.096Z,8.20
2019-02-23T08:35:18.688Z,9.00
2019-02-23T08:37:47.212Z,8.90
2019-02-23T08:40:17.229Z,8.40
2019-02-23T08:42:45.789Z,8.30
2019-02-23T08:45:14.334Z,8.50
2019-02-23T08:47:42.848Z,8.80
2019-02-23T08:50:15.912Z,9.10
2019-02-23T08:52:49.269Z,9.30
2019-02-23T08:55:14.632Z,9.60
2019-02-23T08:57:43.130Z,9.20
2019-02-23T09:00:16.837Z,9.20
2019-02-23T09:02:45.350Z,9.10
2019-02-23T09:05:14.552Z,9.20
2019-02-23T09:07:43.123Z,9.30
2019-02-23T09:10:13.586Z,9.40
2019-02-23T09:12:42.112Z,9.60
2019-02-23T09:15:11.429Z,9.60
2019-02-23T09:17:39.961Z,9.70
2019-02-23T09:20:10.405Z,9.70
2019-02-23T09:22:38.922Z,10.00
2019-02-23T09:25:09.528Z,10.00
2019-02-23T09:27:38.099Z,10.40
2019-02-23T09:30:11.904Z,10.40
2019-02-23T09:32:40.416Z,10.50
2019-02-23T09:35:09.108Z,10.20
2019-02-23T09:37:37.665Z,10.30
2019-02-23T09:40:09.216Z,10.60
2019-02-23T09:42:37.865Z,10.80
2019-02-23T09:45:09.270Z,10.70
2019-02-23T09:47:37.770Z,11.00
2019-02-23T09:50:06.337Z,11.20
2019-02-23T09:52:34.810Z,11.70
2019-02-23T09:55:03.393Z,11.20
2019-02-23T09:57:32.035Z,11.20
2019-02-23T10:00:00.512Z,11.30
2019-02-23T10:02:29.129Z,11.40
2019-02-23T10:04:57.622Z,12.00
2019-02-23T10:07:26.090Z,12.40
2019-02-23T10:09:54.556Z,12.60
2019-02-23T10:12:26.059Z,12.60
2019-02-23T10:14:54.581Z,13.10
2019-02-23T10:17:24.060Z,13.10
2019-02-23T10:19:52.539Z,12.90
2019-02-23T10:22:21.017Z,12.60
2019-02-23T10:24:49.563Z,12.30
2019-02-23T10:27:18.032Z,12.40
2019-02-23T10:29:46.517Z,12.90
2019-02-23T10:32:15.065Z,13.20
2019-02-23T10:34:43.639Z,13.70
2019-02-23T10:37:12.219Z,13.30
2019-02-23T10:39:40.785Z,13.20
2019-02-23T10:42:09.349Z,13.80
2019-02-23T10:44:37.856Z,14.50
2019-02-23T10:47:06.368Z,14.20
2019-02-23T10:49:34.917Z,14.10
2019-02-23T10:52:03.380Z,14.50
2019-02-23T10:54:31.909Z,14.40
2019-02-23T10:57:00.379Z,14.30
2019-02-23T10:59:41.374Z,14.00
2019-02-23T11:02:11.443Z,14.20
2019-02-23T11:04:40.040Z,14.20
2019-02-23T11:07:08.675Z,14.00
2019-02-23T11:09:37.456Z,14.30
2019-02-23T11:12:06.372Z,14.40
2019-02-23T11:14:35.000Z,14.30
2019-02-23T11:17:03.608Z,13.90
2019-02-23T11:19:32.085Z,13.60
2019-02-23T11:22:00.577Z,13.50
2019-02-23T11:24:29.189Z,13.80
2019-02-23T11:26:57.666Z,14.00
2019-02-23T11:29:26.165Z,13.70
2019-02-23T11:31:54.621Z,14.00
2019-02-23T11:34:23.247Z,13.90
2019-02-23T11:36:51.765Z,14.00
2019-02-23T11:39:20.246Z,14.30
2019-02-23T11:41:48.720Z,13.90
2019-02-23T11:44:17.229Z,14.00
2019-02-23T11:46:59.814Z,14.10
2019-02-23T11:49:15.903Z,14.70
2019-02-23T11:51:44.824Z,14.30
2019-02-23T11:54:13.374Z,14.20
2019-02-23T11:56:41.841Z,14.60
2019-02-23T11:59:11.875Z,15.10
2019-02-23T12:01:40.493Z,15.00
2019-02-23T12:04:09.011Z,15.10
2019-02-23T12:06:37.523Z,15.40
2019-02-23T12:09:06.870Z,16.00
2019-02-23T12:11:35.410Z,16.10
2019-02-23T12:14:03.913Z,15.30
2019-02-23T12:16:32.446Z,15.60
2019-02-23T12:19:01.484Z,16.10
2019-02-23T12:21:29.985Z,15.40
2019-02-23T12:24:05.779Z,15.40
2019-02-23T12:26:28.673Z,15.60
2019-02-23T12:28:57.165Z,14.80
2019-02-23T12:31:25.641Z,14.90
2019-02-23T12:33:54.107Z,14.70
2019-02-23T12:36:22.593Z,14.50
2019-02-23T12:38:51.076Z,14.60
2019-02-23T12:41:19.619Z,14.00
2019-02-23T12:43:48.208Z,14.40
2019-02-23T12:46:16.752Z,14.70
2019-02-23T12:48:45.287Z,14.60
2019-02-23T12:51:13.790Z,14.90
2019-02-23T12:53:42.320Z,14.60
2019-02-23T12:56:10.868Z,14.20
2019-02-23T12:58:39.383Z,14.10
2019-02-23T13:01:07.864Z,14.50
2019-02-23T13:03:36.344Z,14.60
2019-02-23T13:06:05.014Z,14.30
2019-02-23T13:09:11.767Z,14.00
2019-02-23T13:11:40.616Z,13.70
2019-02-23T13:14:42.577Z,14.10
2019-02-23T13:17:20.108Z,14.30
2019-02-23T13:20:09.852Z,14.30
2019-02-23T13:22:41.433Z,14.10
2019-02-23T13:25:24.992Z,14.00
2019-02-23T13:27:56.566Z,14.00
2019-02-23T13:30:36.391Z,14.00
2019-02-23T13:33:30.672Z,13.80
2019-02-23T13:36:08.064Z,14.10
2019-02-23T13:39:00.781Z,13.90
2019-02-23T13:41:40.897Z,13.90
2019-02-23T13:44:19.438Z,13.80
2019-02-23T13:46:54.056Z,13.80
2019-02-23T13:49:25.617Z,13.90
2019-02-23T13:52:08.969Z,13.90
2019-02-23T13:54:43.456Z,14.10
2019-02-23T13:57:17.897Z,14.20
2019-02-23T14:00:15.216Z,14.10
2019-02-23T14:02:58.966Z,14.20
2019-02-23T14:05:33.392Z,14.50
2019-02-23T14:08:22.789Z,14.10
2019-02-23T14:11:29.133Z,14.00
2019-02-23T14:14:33.766Z,14.00
2019-02-23T14:17:14.084Z,14.30
2019-02-23T14:19:51.471Z,14.10
2019-02-23T14:22:41.165Z,14.20
2019-02-23T14:25:27.655Z,14.00
2019-02-23T14:28:08.112Z,14.00
2019-02-23T14:31:02.193Z,13.90
2019-02-23T14:33:45.721Z,13.80
2019-02-23T14:36:20.094Z,13.80
2019-02-23T14:39:01.580Z,13.80
2019-02-23T14:41:39.422Z,13.80
2019-02-23T14:44:11.058Z,13.80
2019-02-23T14:46:48.317Z,13.90
2019-02-23T14:49:50.335Z,13.90
2019-02-23T14:52:43.004Z,13.60
2019-02-23T14:55:23.302Z,13.70
2019-02-23T14:58:16.946Z,13.80
2019-02-23T15:01:06.841Z,13.70
2019-02-23T15:03:50.105Z,13.70
2019-02-23T15:06:27.684Z,13.60
2019-02-23T15:09:14.006Z,13.50
2019-02-23T15:11:51.136Z,13.60
2019-02-23T15:14:49.821Z,13.60
2019-02-23T15:17:27.211Z,13.50
2019-02-23T15:20:31.880Z,13.60
2019-02-23T15:23:18.308Z,13.30
2019-02-23T15:26:01.755Z,13.30
2019-02-23T15:28:48.652Z,13.20
2019-02-23T15:31:35.487Z,13.10
2019-02-23T15:34:25.154Z,13.20
2019-02-23T15:37:17.689Z,13.20
2019-02-23T15:40:18.006Z,13.20
2019-02-23T15:43:01.260Z,13.00
2019-02-23T15:45:35.575Z,13.10
2019-02-23T15:48:07.340Z,12.90
2019-02-23T15:50:35.938Z,12.80
2019-02-23T15:53:04.610Z,12.70
2019-02-23T15:55:33.104Z,12.80
2019-02-23T15:58:01.610Z,12.80
2019-02-23T16:00:30.092Z,12.70
2019-02-23T16:02:58.673Z,12.80
2019-02-23T16:05:27.248Z,12.70
2019-02-23T16:07:55.805Z,12.70
2019-02-23T16:10:24.279Z,12.60
2019-02-23T16:12:52.798Z,12.50
2019-02-23T16:15:21.408Z,12.40
2019-02-23T16:17:49.881Z,12.40
2019-02-23T16:20:18.380Z,12.30
2019-02-23T16:22:46.945Z,12.30
2019-02-23T16:25:15.419Z,12.30
2019-02-23T16:27:43.876Z,12.30
2019-02-23T16:30:12.542Z,12.20
2019-02-23T16:32:41.032Z,12.10
2019-02-23T16:35:09.586Z,12.10
2019-02-23T16:37:38.084Z,12.10
2019-02-23T16:40:07.588Z,12.00
2019-02-23T16:42:36.138Z,12.00
2019-02-23T16:45:07.773Z,11.90
2019-02-23T16:47:36.298Z,11.80
2019-02-23T16:50:07.556Z,11.70
2019-02-23T16:52:36.076Z,11.70
2019-02-23T16:55:04.795Z,11.60
2019-02-23T16:57:33.329Z,11.60
2019-02-23T17:00:01.900Z,11.50
2019-02-23T17:02:30.369Z,11.50
2019-02-23T17:04:58.852Z,11.40
2019-02-23T17:07:27.384Z,11.30
2019-02-23T17:09:55.865Z,11.20
2019-02-23T17:12:24.382Z,11.10
2019-02-23T17:14:52.867Z,11.10
2019-02-23T17:17:21.344Z,11.00
2019-02-23T17:19:49.840Z,11.00
2019-02-23T17:22:18.313Z,11.00
2019-02-23T17:24:46.792Z,10.90
2019-02-23T17:27:15.294Z,10.80
2019-02-23T17:29:43.782Z,10.70
2019-02-23T17:32:12.281Z,10.70
2019-02-23T17:34:40.832Z,10.60
2019-02-23T17:37:09.331Z,10.60
2019-02-23T17:39:37.855Z,10.50
2019-02-23T17:42:06.377Z,10.50
2019-02-23T17:44:34.837Z,10.40
2019-02-23T17:47:03.304Z,10.40
2019-02-23T17:49:31.867Z,10.40
2019-02-23T17:52:00.412Z,10.30
2019-02-23T17:54:29.281Z,10.30
2019-02-23T17:56:57.885Z,10.20
2019-02-23T17:59:26.348Z,10.20
2019-02-23T18:01:54.848Z,10.20
2019-02-23T18:04:23.331Z,10.20
2019-02-23T18:06:51.801Z,10.10
2019-02-23T18:09:20.265Z,10.10
2019-02-23T18:11:48.777Z,10.00
2019-02-23T18:14:17.260Z,10.00
2019-02-23T18:16:45.860Z,9.90
2019-02-23T18:19:14.493Z,9.80
2019-02-23T18:21:43.100Z,9.80
2019-02-23T18:24:11.572Z,9.80
2019-02-23T18:26:40.316Z,9.70
2019-02-23T18:29:08.845Z,9.70
2019-02-23T18:31:37.299Z,9.60
2019-02-23T18:34:05.882Z,9.60
2019-02-23T18:36:34.350Z,9.60
2019-02-23T18:39:02.884Z,9.50
2019-02-23T18:41:31.498Z,9.50
2019-02-23T18:44:02.652Z,9.70
2019-02-23T18:46:33.110Z,9.70
2019-02-23T18:49:01.840Z,9.50
2019-02-23T18:51:30.300Z,9.50
2019-02-23T18:53:59.549Z,9.50
2019-02-23T18:56:29.792Z,9.50
2019-02-23T18:58:58.560Z,9.40
2019-02-23T19:01:27.043Z,9.40
2019-02-23T19:03:55.552Z,9.40
2019-02-23T19:06:24.856Z,9.40
2019-02-23T19:08:53.325Z,9.40
2019-02-23T19:11:25.301Z,9.30
2019-02-23T19:13:53.775Z,9.30
2019-02-23T19:16:23.397Z,9.30
2019-02-23T19:18:52.165Z,9.20
2019-02-23T19:21:20.647Z,9.10
2019-02-23T19:23:49.210Z,9.10
2019-02-23T19:26:17.796Z,9.00
2019-02-23T19:28:46.286Z,9.10
2019-02-23T19:31:14.776Z,9.00
2019-02-23T19:33:43.373Z,9.00
2019-02-23T19:36:11.868Z,8.90
2019-02-23T19:38:40.326Z,8.90
2019-02-23T19:41:08.848Z,8.80
2019-02-23T19:43:37.334Z,8.80
2019-02-23T19:46:05.812Z,8.80
2019-02-23T19:48:34.313Z,8.70
2019-02-23T19:51:06.096Z,8.60
2019-02-23T19:53:34.627Z,8.50
2019-02-23T19:56:03.141Z,8.50
2019-02-23T19:58:31.809Z,8.50
2019-02-23T20:01:00.440Z,8.50
2019-02-23T20:03:28.931Z,8.40
2019-02-23T20:05:57.487Z,8.40
2019-02-23T20:08:29.261Z,8.30
2019-02-23T20:10:57.764Z,8.20
2019-02-23T20:13:26.247Z,8.20
2019-02-23T20:15:54.845Z,8.10
2019-02-23T20:18:44.615Z,8.10
2019-02-23T20:21:20.792Z,8.00
2019-02-23T20:23:49.443Z,8.00
2019-02-23T20:26:18.061Z,8.00
2019-02-23T20:28:46.591Z,8.00
2019-02-23T20:31:15.062Z,7.90
2019-02-23T20:33:43.565Z,7.90
2019-02-23T20:36:12.028Z,7.80
2019-02-23T20:38:40.509Z,7.80
2019-02-23T20:41:09.113Z,7.80
2019-02-23T20:43:37.600Z,7.70
2019-02-23T20:46:06.200Z,7.70
2019-02-23T20:49:16.661Z,7.60
2019-02-23T20:51:45.261Z,7.60
2019-02-23T20:54:28.968Z,7.60
2019-02-23T20:57:04.103Z,7.60
2019-02-23T20:59:27.691Z,7.50
2019-02-23T21:01:56.188Z,7.60
2019-02-23T21:04:37.064Z,7.60
2019-02-23T21:07:05.560Z,7.60
2019-02-23T21:09:34.097Z,7.50
2019-02-23T21:12:02.580Z,7.50
2019-02-23T21:14:31.153Z,7.50
2019-02-23T21:16:59.625Z,7.50
2019-02-23T21:19:28.196Z,7.50
2019-02-23T21:21:56.699Z,7.50
2019-02-23T21:24:25.175Z,7.50
2019-02-23T21:26:53.725Z,7.50
2019-02-23T21:29:22.395Z,7.40
2019-02-23T21:31:50.852Z,7.40
2019-02-23T21:34:19.348Z,7.40
2019-02-23T21:36:47.856Z,7.40
2019-02-23T21:39:16.316Z,7.30
2019-02-23T21:41:44.784Z,7.30
2019-02-23T21:44:49.147Z,7.30
2019-02-23T21:47:17.629Z,7.20
2019-02-23T21:50:03.841Z,7.20
2019-02-23T21:52:32.305Z,7.20
2019-02-23T21:55:00.854Z,7.10
2019-02-23T21:57:29.337Z,7.10
2019-02-23T21:59:57.807Z,7.00
2019-02-23T22:02:26.374Z,7.00
2019-02-23T22:04:55.053Z,6.90
2019-02-23T22:07:36.249Z,6.90
2019-02-23T22:10:07.787Z,6.90
2019-02-23T22:12:36.311Z,6.90
2019-02-23T22:15:06.542Z,6.80
2019-02-23T22:17:35.076Z,6.80
2019-02-23T22:20:04.385Z,6.80
2019-02-23T22:22:32.923Z,6.80
2019-02-23T22:25:01.426Z,6.80
2019-02-23T22:27:31.578Z,6.90
2019-02-23T22:30:00.442Z,6.80
2019-02-23T22:32:29.249Z,6.80
2019-02-23T22:34:57.799Z,6.70
2019-02-23T22:37:26.328Z,6.70
2019-02-23T22:39:54.893Z,6.70
2019-02-23T22:42:23.351Z,6.60
2019-02-23T22:44:51.812Z,6.60
2019-02-23T22:47:20.317Z,6.60
2019-02-23T22:49:48.860Z,6.50
2019-02-23T22:52:17.406Z,6.50
2019-02-23T22:54:46.271Z,6.50
2019-02-23T22:57:14.855Z,6.50
2019-02-23T22:59:43.333Z,6.50
2019-02-23T23:02:11.888Z,6.40
2019-02-23T23:04:40.377Z,6.40
2019-02-23T23:07:08.833Z,6.40
2019-02-23T23:09:37.330Z,6.40
2019-02-23T23:12:05.946Z,6.40
2019-02-23T23:14:34.485Z,6.40
2019-02-23T23:17:02.969Z,6.30
2019-02-23T23:19:31.422Z,6.30
2019-02-23T23:21:59.917Z,6.30
2019-02-23T23:24:29.940Z,6.30
2019-02-23T23:26:58.411Z,6.20
2019-02-23T23:29:26.952Z,6.20
2019-02-23T23:31:55.443Z,6.20
2019-02-23T23:34:23.964Z,6.20
2019-02-23T23:36:52.591Z,6.20
2019-02-23T23:39:21.138Z,6.10
2019-02-23T23:41:49.680Z,6.10
2019-02-23T23:44:18.164Z,6.10
2019-02-23T23:46:46.680Z,6.10
2019-02-23T23:49:15.152Z,6.10
2019-02-23T23:51:43.693Z,6.00
2019-02-23T23:54:12.185Z,6.00
2019-02-23T23:56:40.640Z,5.90
2019-02-23T23:59:09.120Z,5.90
